This is the latest recevied weather packets stored in our database for station/object EA1IOK-13. If no packets are shown the sender has not sent any weather packets the latest 10 day(s).
| Time | Temp. | Humidity | Pressure | Rain* | Wind** | Luminosity | Snow |
|---|---|---|---|---|---|---|---|
| 1777828689 | 12.78° C | 93% | 1012.5 hPa | 1.02 mm | - | - | - |
| 1777827789 | 12.78° C | 92% | 1012.4 hPa | 1.52 mm | - | - | - |
| 1777826888 | 13.33° C | 91% | 1012.3 hPa | 1.52 mm | - | - | - |
| 1777825989 | 12.22° C | 94% | 1012.4 hPa | 1.52 mm | - | - | - |
| 1777825089 | 12.22° C | 90% | 1012.5 hPa | 0.51 mm | - | - | - |
| 1777824190 | 13.33° C | 92% | 1012 hPa | 0.25 mm | - | - | - |
| 1777823290 | 13.33° C | 92% | 1012.1 hPa | 0.25 mm | - | - | - |
| 1777821488 | 13.33° C | 92% | 1012.2 hPa | 0.51 mm | - | - | - |
| 1777820589 | 13.33° C | 91% | 1012.3 hPa | 0.25 mm | - | - | - |
| 1777817888 | 13.33° C | 88% | 1012.5 hPa | 0 mm | - | - | - |
| 1777816988 | 13.33° C | 90% | 1012.4 hPa | 0 mm | - | - | - |
| 1777816090 | 12.78° C | 91% | 1012.5 hPa | 0 mm | - | - | - |
| 1777815189 | 12.78° C | 90% | 1012.6 hPa | 0 mm | - | - | - |
| 1777814289 | 12.78° C | 91% | 1012.6 hPa | 0 mm | - | - | - |
| 1777813389 | 13.33° C | 91% | 1012.7 hPa | 0.25 mm | - | - | - |
| 1777812488 | 12.78° C | 86% | 1012.7 hPa | 0.25 mm | - | - | - |
| 1777811588 | 12.78° C | 89% | 1012.7 hPa | 0.25 mm | - | - | - |
| 1777809788 | 12.78° C | 88% | 1012.9 hPa | 0.25 mm | - | - | - |
| 1777808887 | 12.78° C | 88% | 1012.9 hPa | 0.51 mm | - | - | - |
| 1777807988 | 13.33° C | 90% | 1012.9 hPa | 0.51 mm | - | - | - |
| 1777805288 | 13.89° C | 86% | 1012.7 hPa | 0 mm | - | - | - |
| 1777803489 | 13.89° C | 85% | 1012.7 hPa | 0 mm | - | - | - |
| 1777802588 | 13.89° C | 86% | 1012.7 hPa | 0 mm | - | - | - |
| 1777801688 | 13.89° C | 88% | 1012.7 hPa | 0 mm | - | - | - |
| 1777800789 | 13.89° C | 93% | 1012.8 hPa | 0 mm | - | - | - |
* Rain latest hour (hover to see other rain measurements)
** Current wind speed in m/s (hover to see current wind gust speed)